Terminal Aerodrome Forecast
Issued by NWS

Current Version | Previous Version | Text Only | Print | Product List | Glossary On
Versions: 1 2 3 4 5 6 7 8 9 10 11 12 13 14
000
FTUS46 KLOX 282300 RRA
TAFOXR
TAF
KOXR 282351Z 2900/2924 28013KT P6SM SKC
     FM290400 29005KT P6SM SKC
     FM291300 VRB04KT 6SM BR SCT004
     FM291600 27005KT P6SM SCT250
     FM292000 28012KT P6SM SCT250=

USA.gov is the U.S. government's official web portal to all federal, state and local government web resources and services.